Time;durP1;ratioP1;P1;durP2;ratioP2;P2;SDS_P1;SDS_P2;PMS_P1;PMS_P2;Temp;Humidity;BMP_temperature;BMP_pressure;BME280_temperature;BME280_humidity;BME280_pressure;Samples;Min_cycle;Max_cycle;Signal;HPM_P1;HPM_P2
2023/04/10 00:03:52;;;;;;;8.45;5.55;;;;;;;;;;8298711;28;20132;-61
2023/04/10 00:07:52;;;;;;;10.13;5.72;;;;;;;;;;8295023;28;20110;-60
2023/04/10 00:11:53;;;;;;;11.00;6.45;;;;;;;;;;8281721;28;20761;-61
2023/04/10 00:15:53;;;;;;;8.70;5.85;;;;;;;;;;8295847;28;20049;-61
2023/04/10 00:19:53;;;;;;;10.50;6.43;;;;;;;;;;8298829;28;20247;-61
2023/04/10 00:23:53;;;;;;;14.68;7.18;;;;;;;;;;8296874;28;20025;-60
2023/04/10 00:27:54;;;;;;;13.73;7.70;;;;;;;;;;8298765;28;20025;-61
2023/04/10 00:31:54;;;;;;;11.15;7.07;;;;;;;;;;8297090;28;20045;-61
2023/04/10 00:35:54;;;;;;;9.07;6.45;;;;;;;;;;8298376;28;20025;-61
2023/04/10 00:39:55;;;;;;;9.82;6.55;;;;;;;;;;8299856;28;20096;-60
2023/04/10 00:43:55;;;;;;;10.02;6.32;;;;;;;;;;8300279;28;20032;-60
2023/04/10 00:47:56;;;;;;;8.35;5.93;;;;;;;;;;8297434;28;20045;-61
2023/04/10 00:51:56;;;;;;;8.13;5.80;;;;;;;;;;8296659;28;20044;-60
2023/04/10 00:55:57;;;;;;;8.20;5.50;;;;;;;;;;8300843;28;20071;-60
2023/04/10 00:59:57;;;;;;;9.02;5.90;;;;;;;;;;8295495;28;20386;-60
2023/04/10 01:03:57;;;;;;;8.75;6.15;;;;;;;;;;8302535;28;20041;-61
2023/04/10 01:07:58;;;;;;;11.88;7.00;;;;;;;;;;8303127;28;20021;-61
2023/04/10 01:12:01;;;;;;;12.13;7.47;;;;;;;;;;8302106;28;20025;-61
2023/04/10 01:16:06;;;;;;;14.60;8.15;;;;;;;;;;8304614;28;20800;-60
2023/04/10 01:20:07;;;;;;;10.70;7.00;;;;;;;;;;8300848;28;20017;-61
2023/04/10 01:24:26;;;;;;;14.27;8.20;;;;;;;;;;8303034;28;20029;-60
2023/04/10 01:28:26;;;;;;;9.75;6.38;;;;;;;;;;8300461;28;20284;-61
2023/04/10 01:32:27;;;;;;;7.70;5.45;;;;;;;;;;8303807;28;20033;-61
2023/04/10 01:36:32;;;;;;;7.00;5.22;;;;;;;;;;8303478;28;20632;-61
2023/04/10 01:40:34;;;;;;;8.30;5.82;;;;;;;;;;8302833;28;20658;-61
2023/04/10 01:44:35;;;;;;;7.00;5.35;;;;;;;;;;8303125;28;20083;-60
2023/04/10 01:48:36;;;;;;;6.70;5.28;;;;;;;;;;8301605;28;20501;-60
2023/04/10 01:52:36;;;;;;;8.65;5.88;;;;;;;;;;8302899;28;20448;-60
2023/04/10 01:56:37;;;;;;;7.40;5.32;;;;;;;;;;8301974;28;20752;-61
2023/04/10 02:00:41;;;;;;;8.27;6.00;;;;;;;;;;8301985;28;20143;-61
2023/04/10 02:04:42;;;;;;;9.35;5.70;;;;;;;;;;8302579;28;20170;-60
2023/04/10 02:08:44;;;;;;;9.60;6.57;;;;;;;;;;8303230;28;20061;-61
2023/04/10 02:12:52;;;;;;;10.63;6.75;;;;;;;;;;8300592;28;20280;-61
2023/04/10 02:16:53;;;;;;;10.30;6.88;;;;;;;;;;8301791;28;20072;-60
2023/04/10 02:20:54;;;;;;;9.32;6.53;;;;;;;;;;8301992;28;20029;-61
2023/04/10 02:24:56;;;;;;;9.05;6.63;;;;;;;;;;8300659;28;20926;-61
2023/04/10 02:28:56;;;;;;;7.80;5.85;;;;;;;;;;8301961;28;20025;-60
2023/04/10 02:32:56;;;;;;;9.23;6.05;;;;;;;;;;8302147;28;20087;-61
2023/04/10 02:36:56;;;;;;;9.40;6.45;;;;;;;;;;8301193;28;20117;-61
2023/04/10 02:40:56;;;;;;;10.27;6.50;;;;;;;;;;8301371;28;20037;-60
2023/04/10 02:44:56;;;;;;;9.43;6.65;;;;;;;;;;8300008;28;20080;-60
2023/04/10 02:48:57;;;;;;;13.05;7.22;;;;;;;;;;8301823;28;20052;-61
2023/04/10 02:52:57;;;;;;;10.77;7.15;;;;;;;;;;8299492;28;20032;-61
2023/04/10 02:56:57;;;;;;;14.85;7.88;;;;;;;;;;8300795;28;20827;-61
2023/04/10 03:00:57;;;;;;;20.20;9.07;;;;;;;;;;8301702;28;20045;-61
2023/04/10 03:04:59;;;;;;;15.50;8.77;;;;;;;;;;8284154;28;20138;-61
2023/04/10 03:08:59;;;;;;;23.10;9.88;;;;;;;;;;8297973;28;20989;-60
2023/04/10 03:13:00;;;;;;;21.20;9.18;;;;;;;;;;8297906;28;20107;-60
2023/04/10 03:17:00;;;;;;;19.98;9.57;;;;;;;;;;8297488;28;20041;-61
2023/04/10 03:21:01;;;;;;;18.52;9.68;;;;;;;;;;8299198;28;20029;-60
2023/04/10 03:25:01;;;;;;;15.32;9.52;;;;;;;;;;8297792;28;20695;-60
2023/04/10 03:29:02;;;;;;;16.57;9.83;;;;;;;;;;8298019;28;20467;-61
2023/04/10 03:33:02;;;;;;;14.80;8.75;;;;;;;;;;8296232;28;20673;-60
2023/04/10 03:37:02;;;;;;;15.95;8.27;;;;;;;;;;8299327;28;20021;-61
2023/04/10 03:41:03;;;;;;;14.75;9.48;;;;;;;;;;8297622;28;20071;-60
2023/04/10 03:45:05;;;;;;;14.43;8.57;;;;;;;;;;8294404;28;20052;-61
2023/04/10 03:49:05;;;;;;;11.80;8.10;;;;;;;;;;8298212;28;20574;-60
2023/04/10 03:53:05;;;;;;;12.52;8.75;;;;;;;;;;8297059;28;20113;-60
2023/04/10 03:57:05;;;;;;;11.82;8.27;;;;;;;;;;8296831;28;20033;-60
2023/04/10 04:01:06;;;;;;;10.93;7.90;;;;;;;;;;8295161;28;20725;-61
2023/04/10 04:05:06;;;;;;;17.70;7.88;;;;;;;;;;8298602;28;20038;-61
2023/04/10 04:09:07;;;;;;;10.70;8.05;;;;;;;;;;8298227;28;20723;-61
2023/04/10 04:13:07;;;;;;;8.57;6.32;;;;;;;;;;8297810;28;20770;-61
2023/04/10 04:17:07;;;;;;;9.30;7.05;;;;;;;;;;8299241;28;20033;-61
2023/04/10 04:21:07;;;;;;;9.23;6.97;;;;;;;;;;8298590;28;20025;-60
2023/04/10 04:25:10;;;;;;;11.32;7.90;;;;;;;;;;8297501;28;20114;-61
2023/04/10 04:29:10;;;;;;;13.27;8.10;;;;;;;;;;8300346;28;20533;-61
2023/04/10 04:33:10;;;;;;;10.20;7.88;;;;;;;;;;8300108;28;20052;-60
2023/04/10 04:37:10;;;;;;;11.73;8.20;;;;;;;;;;8298765;28;20029;-60
2023/04/10 04:41:11;;;;;;;11.18;7.57;;;;;;;;;;8303616;28;20025;-60
2023/04/10 04:45:11;;;;;;;10.25;8.10;;;;;;;;;;8305036;28;20025;-61
2023/04/10 04:49:11;;;;;;;10.75;7.70;;;;;;;;;;8305873;28;20033;-60
2023/04/10 04:53:12;;;;;;;9.45;7.28;;;;;;;;;;8306090;28;20036;-61
2023/04/10 04:57:12;;;;;;;8.63;6.90;;;;;;;;;;8302840;28;20100;-61
2023/04/10 05:01:12;;;;;;;10.07;7.03;;;;;;;;;;8304443;28;20763;-60
2023/04/10 05:05:12;;;;;;;10.63;7.13;;;;;;;;;;8305047;28;20072;-61
2023/04/10 05:09:13;;;;;;;9.82;7.47;;;;;;;;;;8303660;28;20140;-61
2023/04/10 05:13:14;;;;;;;9.95;7.43;;;;;;;;;;8302762;28;20029;-61
2023/04/10 05:17:15;;;;;;;8.75;6.93;;;;;;;;;;8303179;28;20068;-60
2023/04/10 05:21:15;;;;;;;9.38;7.20;;;;;;;;;;8302329;28;20026;-61
2023/04/10 05:25:16;;;;;;;13.15;9.55;;;;;;;;;;8303781;28;20600;-60
2023/04/10 05:29:16;;;;;;;17.70;9.52;;;;;;;;;;8302278;28;20874;-60
2023/04/10 05:33:16;;;;;;;18.35;11.60;;;;;;;;;;8303324;28;20484;-60
2023/04/10 05:37:16;;;;;;;16.95;10.52;;;;;;;;;;8305761;28;20500;-60
2023/04/10 05:41:16;;;;;;;13.90;10.18;;;;;;;;;;8302865;28;20069;-61
2023/04/10 05:45:17;;;;;;;10.88;8.43;;;;;;;;;;8304453;28;20031;-61
2023/04/10 05:49:17;;;;;;;10.00;7.53;;;;;;;;;;8302618;28;20031;-62
2023/04/10 05:53:18;;;;;;;10.40;7.43;;;;;;;;;;8303600;28;20033;-61
2023/04/10 05:57:18;;;;;;;10.27;7.95;;;;;;;;;;8301792;28;20871;-61
2023/04/10 06:01:18;;;;;;;10.10;7.65;;;;;;;;;;8286468;28;20490;-61
2023/04/10 06:05:18;;;;;;;11.48;8.30;;;;;;;;;;8302599;28;20094;-61
2023/04/10 06:09:19;;;;;;;10.13;7.45;;;;;;;;;;8305090;28;20029;-61
2023/04/10 06:13:19;;;;;;;8.77;6.97;;;;;;;;;;8300805;28;20017;-61
2023/04/10 06:17:20;;;;;;;7.97;6.72;;;;;;;;;;8303259;28;20553;-61
2023/04/10 06:21:20;;;;;;;8.23;6.85;;;;;;;;;;8300862;28;20021;-62
2023/04/10 06:25:20;;;;;;;8.38;7.05;;;;;;;;;;8301878;28;20028;-62
2023/04/10 06:29:20;;;;;;;7.45;6.25;;;;;;;;;;8301951;28;20018;-62
2023/04/10 06:33:21;;;;;;;8.55;6.93;;;;;;;;;;8302080;28;20120;-62
2023/04/10 06:37:31;;;;;;;8.35;6.43;;;;;;;;;;8302233;28;20922;-62
2023/04/10 06:41:31;;;;;;;7.20;6.38;;;;;;;;;;8297822;28;20017;-62
2023/04/10 06:45:31;;;;;;;7.82;6.82;;;;;;;;;;8301574;28;20147;-62
2023/04/10 06:49:32;;;;;;;6.85;6.03;;;;;;;;;;8299590;28;20083;-63
2023/04/10 06:53:32;;;;;;;7.63;6.47;;;;;;;;;;8302417;28;20393;-62
2023/04/10 06:57:32;;;;;;;7.18;6.15;;;;;;;;;;8300216;28;20025;-62
2023/04/10 07:01:32;;;;;;;7.00;6.30;;;;;;;;;;8297731;28;20037;-63
2023/04/10 07:05:32;;;;;;;6.97;6.28;;;;;;;;;;8301300;28;20044;-62
2023/04/10 07:09:32;;;;;;;6.95;6.25;;;;;;;;;;8301208;28;20017;-62
2023/04/10 07:13:34;;;;;;;7.95;6.80;;;;;;;;;;8303361;28;20106;-62
2023/04/10 07:17:34;;;;;;;7.60;6.35;;;;;;;;;;8299053;28;20076;-62
2023/04/10 07:21:35;;;;;;;7.47;6.40;;;;;;;;;;8298409;28;20034;-62
2023/04/10 07:25:35;;;;;;;7.45;6.05;;;;;;;;;;8297704;28;20028;-62
2023/04/10 07:29:35;;;;;;;6.47;5.88;;;;;;;;;;8298603;28;20029;-62
2023/04/10 07:33:36;;;;;;;7.32;6.55;;;;;;;;;;8298804;28;20032;-62
2023/04/10 07:37:36;;;;;;;6.68;5.97;;;;;;;;;;8295878;28;20071;-62
2023/04/10 07:41:36;;;;;;;7.18;6.47;;;;;;;;;;8296759;28;20704;-62
2023/04/10 07:45:36;;;;;;;6.78;6.07;;;;;;;;;;8289403;28;20492;-62
2023/04/10 07:49:36;;;;;;;6.85;6.15;;;;;;;;;;8279954;28;20040;-62
2023/04/10 07:53:37;;;;;;;7.13;6.43;;;;;;;;;;8287975;28;20036;-62
2023/04/10 07:57:37;;;;;;;7.45;6.75;;;;;;;;;;8288936;28;20031;-62
2023/04/10 08:01:37;;;;;;;9.88;6.63;;;;;;;;;;8288363;28;20124;-62
2023/04/10 08:05:37;;;;;;;6.75;5.88;;;;;;;;;;8285914;28;20322;-62
2023/04/10 08:09:37;;;;;;;6.72;6.07;;;;;;;;;;8290485;28;20521;-63
2023/04/10 08:13:37;;;;;;;6.60;5.95;;;;;;;;;;8284350;28;20032;-62
2023/04/10 08:17:38;;;;;;;7.00;5.90;;;;;;;;;;8287732;28;20148;-62
2023/04/10 08:21:38;;;;;;;6.10;5.50;;;;;;;;;;8287653;28;20021;-63
2023/04/10 08:25:38;;;;;;;7.15;6.43;;;;;;;;;;8284579;28;20148;-65
2023/04/10 08:29:38;;;;;;;6.85;6.18;;;;;;;;;;8290785;28;20029;-63
2023/04/10 08:33:39;;;;;;;6.97;5.72;;;;;;;;;;8287743;28;20029;-63
2023/04/10 08:37:39;;;;;;;10.40;7.82;;;;;;;;;;8294246;28;20434;-64
2023/04/10 08:41:40;;;;;;;6.68;5.85;;;;;;;;;;8292049;28;20032;-63
2023/04/10 08:45:40;;;;;;;7.53;5.97;;;;;;;;;;8294440;28;20132;-64
2023/04/10 08:49:44;;;;;;;13.27;8.95;;;;;;;;;;8301485;28;20029;-63
2023/04/10 08:53:45;;;;;;;6.80;6.10;;;;;;;;;;8296820;28;20308;-63
2023/04/10 08:57:45;;;;;;;7.25;5.90;;;;;;;;;;8290684;28;20028;-63
2023/04/10 09:01:46;;;;;;;10.65;7.95;;;;;;;;;;8293350;28;20037;-63
2023/04/10 09:05:46;;;;;;;10.15;7.07;;;;;;;;;;8299424;28;20148;-62
2023/04/10 09:09:46;;;;;;;9.80;7.78;;;;;;;;;;8299024;28;20026;-62
2023/04/10 09:13:46;;;;;;;6.57;5.97;;;;;;;;;;8295641;28;20147;-62
2023/04/10 09:17:53;;;;;;;6.60;6.00;;;;;;;;;;8300549;28;20033;-63
2023/04/10 09:21:54;;;;;;;8.55;6.55;;;;;;;;;;8299764;28;20087;-62
2023/04/10 09:25:54;;;;;;;7.63;6.82;;;;;;;;;;8304108;28;20029;-63
2023/04/10 09:29:54;;;;;;;30.10;7.25;;;;;;;;;;8301670;28;20041;-62
2023/04/10 09:34:15;;;;;;;7.15;6.07;;;;;;;;;;8305270;28;20037;-62
2023/04/10 09:38:19;;;;;;;7.10;5.68;;;;;;;;;;8305714;28;20063;-62
2023/04/10 09:42:29;;;;;;;9.00;5.88;;;;;;;;;;8304222;28;20067;-62
2023/04/10 09:46:29;;;;;;;6.10;5.50;;;;;;;;;;8304029;28;20045;-63
2023/04/10 09:50:33;;;;;;;6.78;5.63;;;;;;;;;;8304155;28;20660;-63
2023/04/10 09:54:36;;;;;;;5.97;5.38;;;;;;;;;;8306475;28;20037;-63
2023/04/10 09:58:37;;;;;;;6.55;5.15;;;;;;;;;;8304458;28;20822;-63
2023/04/10 10:02:38;;;;;;;5.72;5.13;;;;;;;;;;8307591;28;20820;-63
2023/04/10 10:06:38;;;;;;;5.93;5.30;;;;;;;;;;8299960;28;20939;-63
2023/04/10 10:10:44;;;;;;;6.30;5.18;;;;;;;;;;8305696;28;20529;-63
2023/04/10 10:15:05;;;;;;;6.45;5.80;;;;;;;;;;8305290;28;20145;-63
2023/04/10 10:19:11;;;;;;;5.72;5.13;;;;;;;;;;8302988;28;20068;-63
2023/04/10 10:23:14;;;;;;;5.75;5.20;;;;;;;;;;8302968;28;20029;-63
2023/04/10 10:27:15;;;;;;;4.90;4.35;;;;;;;;;;8304169;28;20029;-63
2023/04/10 10:31:17;;;;;;;5.47;4.93;;;;;;;;;;8304809;28;20037;-63
2023/04/10 10:35:17;;;;;;;5.28;4.78;;;;;;;;;;8303955;28;20032;-63
2023/04/10 10:39:37;;;;;;;5.53;4.65;;;;;;;;;;8305182;28;20021;-63
2023/04/10 10:43:52;;;;;;;6.43;4.32;;;;;;;;;;8301443;28;20037;-63
2023/04/10 10:47:53;;;;;;;5.05;4.55;;;;;;;;;;8303175;28;20045;-63
2023/04/10 10:51:53;;;;;;;4.22;3.83;;;;;;;;;;8301493;28;20037;-63
2023/04/10 10:55:53;;;;;;;4.00;3.65;;;;;;;;;;8305848;28;20067;-63
2023/04/10 10:59:54;;;;;;;10.30;7.10;;;;;;;;;;8299971;28;21020;-63
2023/04/10 11:03:54;;;;;;;3.78;3.47;;;;;;;;;;8303592;28;20066;-64
2023/04/10 11:07:58;;;;;;;4.43;3.70;;;;;;;;;;8302286;28;20036;-63
2023/04/10 11:11:58;;;;;;;4.35;3.95;;;;;;;;;;8302971;28;20751;-63
2023/04/10 11:15:59;;;;;;;3.88;3.45;;;;;;;;;;8300632;28;20037;-63
2023/04/10 11:19:59;;;;;;;4.05;3.65;;;;;;;;;;8299056;28;20144;-63
2023/04/10 11:23:59;;;;;;;3.70;3.40;;;;;;;;;;8301874;28;20053;-63
2023/04/10 11:28:01;;;;;;;4.10;3.50;;;;;;;;;;8301818;28;20041;-64
2023/04/10 11:32:03;;;;;;;3.80;3.50;;;;;;;;;;8302706;28;20044;-63
2023/04/10 11:36:03;;;;;;;3.70;3.40;;;;;;;;;;8300838;28;20112;-63
2023/04/10 11:40:04;;;;;;;3.80;3.40;;;;;;;;;;8299937;28;20068;-64
2023/04/10 11:44:05;;;;;;;3.60;3.30;;;;;;;;;;8301033;28;20030;-63
2023/04/10 11:48:06;;;;;;;3.65;3.10;;;;;;;;;;8300767;28;20046;-63
2023/04/10 11:52:06;;;;;;;3.15;2.90;;;;;;;;;;8284042;28;20035;-63
2023/04/10 11:56:20;;;;;;;2.78;2.55;;;;;;;;;;8300761;28;20102;-63
2023/04/10 12:00:22;;;;;;;4.15;2.80;;;;;;;;;;8300964;28;20293;-63
2023/04/10 12:04:23;;;;;;;3.15;2.95;;;;;;;;;;8302748;28;20025;-63
2023/04/10 12:08:29;;;;;;;3.70;2.70;;;;;;;;;;8300616;28;20021;-63
2023/04/10 12:12:33;;;;;;;3.17;2.88;;;;;;;;;;8298669;28;20072;-64
2023/04/10 12:16:33;;;;;;;2.40;2.20;;;;;;;;;;8299483;28;20048;-63
2023/04/10 12:20:34;;;;;;;3.53;2.33;;;;;;;;;;8300532;28;20033;-63
2023/04/10 12:25:00;;;;;;;2.53;2.30;;;;;;;;;;8299223;28;20060;-63
2023/04/10 12:29:01;;;;;;;2.50;2.30;;;;;;;;;;8295506;28;20120;-63
2023/04/10 12:33:04;;;;;;;2.53;2.13;;;;;;;;;;8299157;28;20037;-63
2023/04/10 12:37:05;;;;;;;2.30;2.10;;;;;;;;;;8297744;28;20037;-63
2023/04/10 12:41:05;;;;;;;2.45;2.25;;;;;;;;;;8297845;28;20056;-63
2023/04/10 12:45:08;;;;;;;2.20;2.00;;;;;;;;;;8299026;28;20034;-63
2023/04/10 12:49:15;;;;;;;2.40;2.17;;;;;;;;;;8300519;28;20030;-63
2023/04/10 12:53:15;;;;;;;2.60;2.40;;;;;;;;;;8298870;28;20516;-63
2023/04/10 12:57:25;;;;;;;2.10;1.90;;;;;;;;;;8301025;28;20067;-64
2023/04/10 13:01:25;;;;;;;1.50;1.40;;;;;;;;;;8303734;28;20037;-63
2023/04/10 13:05:25;;;;;;;1.33;1.30;;;;;;;;;;8307943;28;20028;-63
2023/04/10 13:09:26;;;;;;;1.38;1.10;;;;;;;;;;8305159;28;20037;-63
2023/04/10 13:13:28;;;;;;;3.72;1.50;;;;;;;;;;8304422;28;20060;-63
2023/04/10 13:17:28;;;;;;;1.10;1.10;;;;;;;;;;8300788;28;20282;-63
2023/04/10 13:21:28;;;;;;;1.20;1.20;;;;;;;;;;8298267;28;20766;-63
2023/04/10 13:25:33;;;;;;;1.20;1.10;;;;;;;;;;8305920;28;20033;-63
2023/04/10 13:29:33;;;;;;;1.10;1.10;;;;;;;;;;8305324;28;20028;-63
2023/04/10 13:33:33;;;;;;;1.20;1.20;;;;;;;;;;8304942;28;20029;-63
2023/04/10 13:37:33;;;;;;;1.58;1.48;;;;;;;;;;8305199;28;20033;-63
2023/04/10 13:41:33;;;;;;;1.20;1.10;;;;;;;;;;8307229;28;20025;-63
2023/04/10 13:45:34;;;;;;;1.33;1.23;;;;;;;;;;8305243;28;20026;-63
2023/04/10 13:49:34;;;;;;;2.10;1.20;;;;;;;;;;8304574;28;20156;-63
2023/04/10 13:53:34;;;;;;;2.63;2.20;;;;;;;;;;8304175;28;20370;-63
2023/04/10 13:57:34;;;;;;;1.70;1.17;;;;;;;;;;8302998;28;20288;-64
2023/04/10 14:01:34;;;;;;;1.37;1.27;;;;;;;;;;8305119;28;20947;-63
2023/04/10 14:05:35;;;;;;;1.33;1.23;;;;;;;;;;8304394;28;20281;-63
2023/04/10 14:09:35;;;;;;;2.07;1.10;;;;;;;;;;8302165;28;20037;-63
2023/04/10 14:13:35;;;;;;;1.20;1.10;;;;;;;;;;8303038;28;20275;-63
2023/04/10 14:17:35;;;;;;;1.48;1.38;;;;;;;;;;8301033;28;20052;-63
2023/04/10 14:21:36;;;;;;;4.07;1.40;;;;;;;;;;8304836;28;20039;-63
2023/04/10 14:25:36;;;;;;;1.33;1.23;;;;;;;;;;8303689;28;20009;-64
2023/04/10 14:29:36;;;;;;;1.40;1.30;;;;;;;;;;8303443;28;20941;-63
2023/04/10 14:33:36;;;;;;;1.50;1.40;;;;;;;;;;8305100;28;20102;-63
2023/04/10 14:37:37;;;;;;;1.17;1.10;;;;;;;;;;8293688;28;20033;-63
2023/04/10 14:41:37;;;;;;;1.38;1.27;;;;;;;;;;8302352;28;20033;-63
2023/04/10 14:45:37;;;;;;;1.10;1.10;;;;;;;;;;8302806;28;20375;-63
2023/04/10 14:49:37;;;;;;;1.10;1.00;;;;;;;;;;8302281;28;20032;-63
2023/04/10 14:53:38;;;;;;;1.30;1.17;;;;;;;;;;8303286;28;20040;-63
2023/04/10 14:57:38;;;;;;;1.13;1.10;;;;;;;;;;8300735;28;20033;-63
2023/04/10 15:01:39;;;;;;;1.30;1.20;;;;;;;;;;8300587;28;20095;-63
2023/04/10 15:05:39;;;;;;;1.00;1.00;;;;;;;;;;8299754;28;20075;-63
2023/04/10 15:09:39;;;;;;;1.42;1.10;;;;;;;;;;8296101;28;20318;-63
2023/04/10 15:13:39;;;;;;;1.00;1.00;;;;;;;;;;8290293;28;20104;-63
2023/04/10 15:17:40;;;;;;;1.10;1.00;;;;;;;;;;8297799;28;20624;-63
2023/04/10 15:21:40;;;;;;;1.48;1.15;;;;;;;;;;8299405;28;20133;-63
2023/04/10 15:25:40;;;;;;;2.25;1.45;;;;;;;;;;8296688;28;20020;-63
2023/04/10 15:29:41;;;;;;;1.52;1.27;;;;;;;;;;8301526;28;20086;-63
2023/04/10 15:33:41;;;;;;;1.35;1.10;;;;;;;;;;8298319;28;20041;-63
2023/04/10 15:37:42;;;;;;;1.55;1.35;;;;;;;;;;8294568;28;20433;-62
2023/04/10 15:41:42;;;;;;;1.75;1.50;;;;;;;;;;8283833;28;20111;-62
2023/04/10 15:45:42;;;;;;;1.63;1.52;;;;;;;;;;8282473;28;20087;-62
2023/04/10 15:49:42;;;;;;;1.10;1.10;;;;;;;;;;8286497;28;20031;-62
2023/04/10 15:53:42;;;;;;;1.17;1.10;;;;;;;;;;8280849;28;20128;-62
2023/04/10 15:57:43;;;;;;;1.10;1.00;;;;;;;;;;8284191;28;20635;-62
2023/04/10 16:01:43;;;;;;;1.05;0.95;;;;;;;;;;8285473;28;20037;-62
2023/04/10 16:05:43;;;;;;;1.10;1.00;;;;;;;;;;8284047;28;20460;-62
2023/04/10 16:09:43;;;;;;;1.63;1.00;;;;;;;;;;8281658;28;20656;-62
2023/04/10 16:13:43;;;;;;;2.42;1.10;;;;;;;;;;8286957;28;20422;-63
2023/04/10 16:17:43;;;;;;;0.90;0.90;;;;;;;;;;8286059;28;20521;-62
2023/04/10 16:21:44;;;;;;;1.00;1.00;;;;;;;;;;8293255;28;20025;-62
2023/04/10 16:25:44;;;;;;;1.17;1.00;;;;;;;;;;8293744;28;20026;-62
2023/04/10 16:29:44;;;;;;;1.00;1.00;;;;;;;;;;8296475;28;20049;-62
2023/04/10 16:33:44;;;;;;;1.90;0.90;;;;;;;;;;8297677;28;20038;-62
2023/04/10 16:37:45;;;;;;;0.90;0.90;;;;;;;;;;8300681;28;20037;-62
2023/04/10 16:41:45;;;;;;;1.23;0.90;;;;;;;;;;8304295;28;20029;-62
2023/04/10 16:45:52;;;;;;;1.17;1.08;;;;;;;;;;8301832;28;20106;-62
2023/04/10 16:49:52;;;;;;;1.17;0.93;;;;;;;;;;8295778;28;20060;-62
2023/04/10 16:53:52;;;;;;;2.70;1.20;;;;;;;;;;8293165;28;20041;-61
2023/04/10 16:57:53;;;;;;;0.90;0.90;;;;;;;;;;8290643;28;20037;-62
2023/04/10 17:01:53;;;;;;;2.10;1.25;;;;;;;;;;8291155;28;20037;-61
2023/04/10 17:05:53;;;;;;;1.48;1.05;;;;;;;;;;8287001;28;20218;-62
2023/04/10 17:09:53;;;;;;;1.42;1.30;;;;;;;;;;8289109;28;20338;-62
2023/04/10 17:13:53;;;;;;;1.00;1.00;;;;;;;;;;8289829;28;20527;-62
2023/04/10 17:17:54;;;;;;;1.08;1.08;;;;;;;;;;8291149;28;20337;-62
2023/04/10 17:21:54;;;;;;;1.20;1.20;;;;;;;;;;8292891;28;20028;-62
2023/04/10 17:25:54;;;;;;;1.40;1.30;;;;;;;;;;8289657;28;20842;-62
2023/04/10 17:29:54;;;;;;;2.55;1.13;;;;;;;;;;8288683;28;20351;-62
2023/04/10 17:33:54;;;;;;;1.30;1.23;;;;;;;;;;8291899;28;20357;-61
2023/04/10 17:37:55;;;;;;;1.10;1.07;;;;;;;;;;8292819;28;20902;-61
2023/04/10 17:41:56;;;;;;;1.55;1.45;;;;;;;;;;8293550;28;20288;-62
2023/04/10 17:45:56;;;;;;;1.85;1.75;;;;;;;;;;8281669;28;20049;-61
2023/04/10 17:49:56;;;;;;;2.15;1.77;;;;;;;;;;8289507;28;20033;-61
2023/04/10 17:53:56;;;;;;;1.40;1.30;;;;;;;;;;8294322;28;20075;-61
2023/04/10 17:57:57;;;;;;;1.50;1.40;;;;;;;;;;8285592;28;20097;-62
2023/04/10 18:01:57;;;;;;;3.42;1.30;;;;;;;;;;8289264;28;20057;-62
2023/04/10 18:05:57;;;;;;;1.60;1.50;;;;;;;;;;8291605;28;20450;-61
2023/04/10 18:09:57;;;;;;;1.80;1.70;;;;;;;;;;8290234;28;20514;-62
2023/04/10 18:13:58;;;;;;;1.92;1.70;;;;;;;;;;8292034;28;20405;-61
2023/04/10 18:17:58;;;;;;;1.67;1.52;;;;;;;;;;8289770;28;20083;-61
2023/04/10 18:21:58;;;;;;;2.05;1.50;;;;;;;;;;8290328;28;20041;-61
2023/04/10 18:25:58;;;;;;;1.63;1.50;;;;;;;;;;8291542;28;20346;-63
2023/04/10 18:29:59;;;;;;;1.60;1.50;;;;;;;;;;8288527;28;20156;-61
2023/04/10 18:33:59;;;;;;;1.95;1.70;;;;;;;;;;8287320;28;20597;-61
2023/04/10 18:37:59;;;;;;;1.80;1.70;;;;;;;;;;8288885;28;20568;-61
2023/04/10 18:42:01;;;;;;;1.60;1.50;;;;;;;;;;8287310;28;20552;-61
2023/04/10 18:46:01;;;;;;;2.15;1.50;;;;;;;;;;8288108;28;20064;-61
2023/04/10 18:50:02;;;;;;;1.60;1.50;;;;;;;;;;8287477;28;20596;-61
2023/04/10 18:54:02;;;;;;;1.27;1.25;;;;;;;;;;8286092;28;20288;-61
2023/04/10 18:58:02;;;;;;;2.15;1.75;;;;;;;;;;8283790;28;20385;-62
2023/04/10 19:02:03;;;;;;;1.50;1.40;;;;;;;;;;8287268;28;20282;-61
2023/04/10 19:06:03;;;;;;;1.60;1.40;;;;;;;;;;8286898;28;20024;-61
2023/04/10 19:10:03;;;;;;;2.80;1.40;;;;;;;;;;8287906;28;20033;-61
2023/04/10 19:14:04;;;;;;;1.60;1.50;;;;;;;;;;8284820;28;20051;-62
2023/04/10 19:18:05;;;;;;;2.15;1.67;;;;;;;;;;8284277;28;20468;-62
2023/04/10 19:22:05;;;;;;;1.60;1.45;;;;;;;;;;8285872;28;20144;-61
2023/04/10 19:26:06;;;;;;;1.55;1.45;;;;;;;;;;8286253;28;20415;-61
2023/04/10 19:30:06;;;;;;;1.70;1.60;;;;;;;;;;8286791;28;20516;-61
2023/04/10 19:34:10;;;;;;;2.35;1.40;;;;;;;;;;8286527;28;20737;-61
2023/04/10 19:38:10;;;;;;;2.53;1.70;;;;;;;;;;8283623;28;20052;-61
2023/04/10 19:42:10;;;;;;;2.65;1.50;;;;;;;;;;8286650;28;20063;-61
2023/04/10 19:46:20;;;;;;;1.45;1.35;;;;;;;;;;8286497;28;20553;-61
2023/04/10 19:50:20;;;;;;;1.50;1.40;;;;;;;;;;8286354;28;20389;-61
2023/04/10 19:54:20;;;;;;;2.87;1.37;;;;;;;;;;8286445;28;20425;-61
2023/04/10 19:58:20;;;;;;;1.50;1.38;;;;;;;;;;8286083;28;20317;-61
2023/04/10 20:02:21;;;;;;;1.83;1.50;;;;;;;;;;8286318;28;20041;-61
2023/04/10 20:06:21;;;;;;;2.65;1.40;;;;;;;;;;8287340;28;20493;-61
2023/04/10 20:10:21;;;;;;;2.90;1.42;;;;;;;;;;8293089;28;20033;-61
2023/04/10 20:14:22;;;;;;;2.03;1.30;;;;;;;;;;8297816;28;20025;-61
2023/04/10 20:18:22;;;;;;;4.05;1.17;;;;;;;;;;8299520;28;20287;-61
2023/04/10 20:22:22;;;;;;;1.80;1.33;;;;;;;;;;8299592;28;20033;-61
2023/04/10 20:26:25;;;;;;;2.10;1.20;;;;;;;;;;8297198;28;20235;-62
2023/04/10 20:30:25;;;;;;;2.00;1.30;;;;;;;;;;8291535;28;20041;-61
2023/04/10 20:34:26;;;;;;;2.83;1.10;;;;;;;;;;8293388;28;20171;-62
2023/04/10 20:38:26;;;;;;;2.05;1.20;;;;;;;;;;8293812;28;20444;-61
2023/04/10 20:42:26;;;;;;;3.10;1.23;;;;;;;;;;8288779;28;20597;-61
2023/04/10 20:46:26;;;;;;;3.63;1.10;;;;;;;;;;8296297;28;20511;-62
2023/04/10 20:50:26;;;;;;;5.90;1.42;;;;;;;;;;8296962;28;20021;-61
2023/04/10 20:54:26;;;;;;;2.22;1.33;;;;;;;;;;8297977;28;20844;-62
2023/04/10 20:58:27;;;;;;;2.78;1.10;;;;;;;;;;8296320;28;20128;-62
2023/04/10 21:02:27;;;;;;;4.28;1.27;;;;;;;;;;8297238;28;20037;-62
2023/04/10 21:06:27;;;;;;;1.42;1.15;;;;;;;;;;8296138;28;20126;-62
2023/04/10 21:10:27;;;;;;;1.67;1.48;;;;;;;;;;8299645;28;20013;-62
2023/04/10 21:14:28;;;;;;;2.65;1.60;;;;;;;;;;8296449;28;20336;-62
2023/04/10 21:18:28;;;;;;;2.17;1.30;;;;;;;;;;8297241;28;20445;-62
2023/04/10 21:22:28;;;;;;;2.35;1.60;;;;;;;;;;8301313;28;20029;-62
2023/04/10 21:26:28;;;;;;;1.55;1.30;;;;;;;;;;8301486;28;20809;-61
2023/04/10 21:30:28;;;;;;;2.30;1.40;;;;;;;;;;8303986;28;20057;-62
2023/04/10 21:34:29;;;;;;;2.90;1.42;;;;;;;;;;8301499;28;20029;-62
2023/04/10 21:38:29;;;;;;;2.50;1.85;;;;;;;;;;8303077;28;20092;-62
2023/04/10 21:42:29;;;;;;;3.08;1.77;;;;;;;;;;8304179;28;20032;-61
2023/04/10 21:46:30;;;;;;;2.35;1.80;;;;;;;;;;8302012;28;20045;-62
2023/04/10 21:50:30;;;;;;;3.70;1.88;;;;;;;;;;8302255;28;20030;-62
2023/04/10 21:54:30;;;;;;;2.10;1.60;;;;;;;;;;8303471;28;20553;-61
2023/04/10 21:58:31;;;;;;;7.63;2.20;;;;;;;;;;8302826;28;22900;-61
2023/04/10 22:02:31;;;;;;;2.95;1.85;;;;;;;;;;8301909;28;20037;-61
2023/04/10 22:06:31;;;;;;;2.97;1.95;;;;;;;;;;8304185;28;20017;-62
2023/04/10 22:10:31;;;;;;;2.90;1.80;;;;;;;;;;8303310;28;20151;-62
2023/04/10 22:14:32;;;;;;;3.15;1.70;;;;;;;;;;8301016;28;20032;-61
2023/04/10 22:18:32;;;;;;;1.73;1.60;;;;;;;;;;8304698;28;20084;-62
2023/04/10 22:22:32;;;;;;;2.03;1.80;;;;;;;;;;8301423;28;20017;-62
2023/04/10 22:26:33;;;;;;;5.72;2.15;;;;;;;;;;8302475;28;20030;-62
2023/04/10 22:30:34;;;;;;;3.67;1.80;;;;;;;;;;8287183;28;20033;-61
2023/04/10 22:34:34;;;;;;;2.75;2.05;;;;;;;;;;8302843;28;20130;-61
2023/04/10 22:38:34;;;;;;;2.17;1.90;;;;;;;;;;8303228;28;20110;-62
2023/04/10 22:42:34;;;;;;;2.55;1.98;;;;;;;;;;8301878;28;20418;-62
2023/04/10 22:46:35;;;;;;;3.92;1.90;;;;;;;;;;8300884;28;20037;-62
2023/04/10 22:50:35;;;;;;;3.03;1.85;;;;;;;;;;8302697;28;20017;-62
2023/04/10 22:54:35;;;;;;;5.63;2.05;;;;;;;;;;8302348;28;20383;-62
